Terminal Aerodrome Forecast
Issued by NWS Sioux Falls, SD

Home | Current Version | Previous Version | Graphics & Text | Print | Product List | Glossary Off
Versions: 1 2 3 4 5 6 7 8 9 10 11 12 13 14 15 16 17 18 19 20 21 22 23 24 25

000
FTUS43 KFSD 191100
TAFFSD
TAF
KFSD 191122Z 1912/2012 19012KT P6SM SCT060 BKN200
     FM191700 19009KT P6SM FEW030 SCT150
     FM192200 18012KT P6SM SCT035 BKN120
     FM200400 17012KT P6SM SCT150
     FM201000 17012KT P6SM SCT090=

USA.gov is the U.S. government's official web portal to all federal, state and local government web resources and services.